sensor_id;sensor_type;location;lat;lon;timestamp;P1;durP1;ratioP1;P2;durP2;ratioP2
65599;SDS011;52272;-29.642;-50.764;2022-09-09T00:04:58;15.23;;;7.20;;
65599;SDS011;52272;-29.642;-50.764;2022-09-09T00:07:38;23.52;;;8.85;;
65599;SDS011;52272;-29.642;-50.764;2022-09-09T00:15:39;14.73;;;6.40;;
65599;SDS011;52272;-29.642;-50.764;2022-09-09T00:27:47;14.65;;;6.35;;
65599;SDS011;52272;-29.642;-50.764;2022-09-09T00:33:00;12.38;;;6.32;;
65599;SDS011;52272;-29.642;-50.764;2022-09-09T00:35:44;13.32;;;7.13;;
65599;SDS011;52272;-29.642;-50.764;2022-09-09T00:38:18;12.32;;;6.82;;
65599;SDS011;52272;-29.642;-50.764;2022-09-09T00:41:11;11.48;;;6.93;;
65599;SDS011;52272;-29.642;-50.764;2022-09-09T00:50:05;7.70;;;5.80;;
65599;SDS011;52272;-29.642;-50.764;2022-09-09T00:58:29;10.52;;;6.28;;
65599;SDS011;52272;-29.642;-50.764;2022-09-09T01:01:10;11.30;;;6.90;;
65599;SDS011;52272;-29.642;-50.764;2022-09-09T01:16:57;12.45;;;7.85;;
65599;SDS011;52272;-29.642;-50.764;2022-09-09T01:28:09;11.20;;;7.95;;
65599;SDS011;52272;-29.642;-50.764;2022-09-09T01:30:43;15.85;;;9.35;;
65599;SDS011;52272;-29.642;-50.764;2022-09-09T01:33:17;17.60;;;9.32;;
65599;SDS011;52272;-29.642;-50.764;2022-09-09T01:35:52;14.10;;;8.73;;
65599;SDS011;52272;-29.642;-50.764;2022-09-09T01:38:29;18.00;;;9.98;;
65599;SDS011;52272;-29.642;-50.764;2022-09-09T01:41:03;18.45;;;12.55;;
65599;SDS011;52272;-29.642;-50.764;2022-09-09T01:43:43;15.00;;;10.05;;
65599;SDS011;52272;-29.642;-50.764;2022-09-09T01:46:13;14.73;;;8.32;;
65599;SDS011;52272;-29.642;-50.764;2022-09-09T01:48:44;10.32;;;7.65;;
65599;SDS011;52272;-29.642;-50.764;2022-09-09T01:51:15;14.57;;;8.38;;
65599;SDS011;52272;-29.642;-50.764;2022-09-09T01:53:46;14.30;;;9.20;;
65599;SDS011;52272;-29.642;-50.764;2022-09-09T01:56:34;20.48;;;10.95;;
65599;SDS011;52272;-29.642;-50.764;2022-09-09T02:02:55;16.05;;;10.65;;
65599;SDS011;52272;-29.642;-50.764;2022-09-09T02:08:52;15.48;;;8.90;;
65599;SDS011;52272;-29.642;-50.764;2022-09-09T02:11:26;12.77;;;7.35;;
65599;SDS011;52272;-29.642;-50.764;2022-09-09T02:14:14;16.35;;;10.75;;
65599;SDS011;52272;-29.642;-50.764;2022-09-09T02:16:52;20.65;;;12.20;;
65599;SDS011;52272;-29.642;-50.764;2022-09-09T02:19:52;19.65;;;12.70;;
65599;SDS011;52272;-29.642;-50.764;2022-09-09T02:22:39;23.35;;;12.43;;
65599;SDS011;52272;-29.642;-50.764;2022-09-09T02:25:15;20.52;;;12.93;;
65599;SDS011;52272;-29.642;-50.764;2022-09-09T02:27:50;21.00;;;12.07;;
65599;SDS011;52272;-29.642;-50.764;2022-09-09T02:30:20;20.77;;;13.38;;
65599;SDS011;52272;-29.642;-50.764;2022-09-09T02:32:56;20.40;;;13.23;;
65599;SDS011;52272;-29.642;-50.764;2022-09-09T02:35:40;17.98;;;13.07;;
65599;SDS011;52272;-29.642;-50.764;2022-09-09T02:38:16;17.67;;;11.85;;
65599;SDS011;52272;-29.642;-50.764;2022-09-09T02:41:00;15.48;;;10.55;;
65599;SDS011;52272;-29.642;-50.764;2022-09-09T02:43:32;19.13;;;12.95;;
65599;SDS011;52272;-29.642;-50.764;2022-09-09T02:49:20;17.70;;;12.60;;
65599;SDS011;52272;-29.642;-50.764;2022-09-09T02:52:20;20.42;;;13.00;;
65599;SDS011;52272;-29.642;-50.764;2022-09-09T02:55:03;17.75;;;11.90;;
65599;SDS011;52272;-29.642;-50.764;2022-09-09T02:57:38;17.27;;;11.80;;
65599;SDS011;52272;-29.642;-50.764;2022-09-09T03:00:10;26.45;;;16.70;;
65599;SDS011;52272;-29.642;-50.764;2022-09-09T03:02:41;28.40;;;17.10;;
65599;SDS011;52272;-29.642;-50.764;2022-09-09T03:05:12;21.35;;;15.95;;
65599;SDS011;52272;-29.642;-50.764;2022-09-09T03:07:42;24.75;;;16.10;;
65599;SDS011;52272;-29.642;-50.764;2022-09-09T03:10:14;22.98;;;16.92;;
65599;SDS011;52272;-29.642;-50.764;2022-09-09T03:12:47;22.33;;;16.15;;
65599;SDS011;52272;-29.642;-50.764;2022-09-09T03:15:20;15.65;;;11.52;;
65599;SDS011;52272;-29.642;-50.764;2022-09-09T03:17:51;19.05;;;12.15;;
65599;SDS011;52272;-29.642;-50.764;2022-09-09T03:20:22;18.25;;;11.93;;
65599;SDS011;52272;-29.642;-50.764;2022-09-09T03:22:56;21.30;;;13.65;;
65599;SDS011;52272;-29.642;-50.764;2022-09-09T03:25:27;20.85;;;14.57;;
65599;SDS011;52272;-29.642;-50.764;2022-09-09T03:28:00;22.55;;;16.52;;
65599;SDS011;52272;-29.642;-50.764;2022-09-09T03:30:31;22.17;;;15.65;;
65599;SDS011;52272;-29.642;-50.764;2022-09-09T03:33:01;23.52;;;16.25;;
65599;SDS011;52272;-29.642;-50.764;2022-09-09T03:35:33;23.50;;;15.30;;
65599;SDS011;52272;-29.642;-50.764;2022-09-09T03:38:03;26.45;;;16.92;;
65599;SDS011;52272;-29.642;-50.764;2022-09-09T03:40:35;22.30;;;16.30;;
65599;SDS011;52272;-29.642;-50.764;2022-09-09T03:43:05;21.90;;;17.00;;
65599;SDS011;52272;-29.642;-50.764;2022-09-09T03:45:36;26.83;;;17.17;;
65599;SDS011;52272;-29.642;-50.764;2022-09-09T03:48:06;21.38;;;16.17;;
65599;SDS011;52272;-29.642;-50.764;2022-09-09T03:50:39;22.83;;;13.68;;
65599;SDS011;52272;-29.642;-50.764;2022-09-09T03:53:13;21.92;;;16.10;;
65599;SDS011;52272;-29.642;-50.764;2022-09-09T03:55:49;25.63;;;16.35;;
65599;SDS011;52272;-29.642;-50.764;2022-09-09T03:58:26;20.77;;;14.07;;
65599;SDS011;52272;-29.642;-50.764;2022-09-09T04:01:08;21.08;;;13.85;;
65599;SDS011;52272;-29.642;-50.764;2022-09-09T04:03:40;24.17;;;17.75;;
65599;SDS011;52272;-29.642;-50.764;2022-09-09T04:06:12;27.23;;;16.00;;
65599;SDS011;52272;-29.642;-50.764;2022-09-09T04:08:45;25.27;;;16.33;;
65599;SDS011;52272;-29.642;-50.764;2022-09-09T04:11:18;22.45;;;15.60;;
65599;SDS011;52272;-29.642;-50.764;2022-09-09T04:13:51;22.65;;;15.52;;
65599;SDS011;52272;-29.642;-50.764;2022-09-09T04:16:22;23.67;;;16.13;;
65599;SDS011;52272;-29.642;-50.764;2022-09-09T04:19:10;21.70;;;16.15;;
65599;SDS011;52272;-29.642;-50.764;2022-09-09T04:21:47;23.45;;;15.38;;
65599;SDS011;52272;-29.642;-50.764;2022-09-09T04:24:22;24.10;;;16.30;;
65599;SDS011;52272;-29.642;-50.764;2022-09-09T04:26:54;26.42;;;17.05;;
65599;SDS011;52272;-29.642;-50.764;2022-09-09T04:29:25;21.63;;;15.65;;
65599;SDS011;52272;-29.642;-50.764;2022-09-09T04:31:55;22.25;;;14.98;;
65599;SDS011;52272;-29.642;-50.764;2022-09-09T04:34:25;25.42;;;17.70;;
65599;SDS011;52272;-29.642;-50.764;2022-09-09T04:39:26;20.55;;;14.60;;
65599;SDS011;52272;-29.642;-50.764;2022-09-09T04:41:57;20.10;;;14.25;;
65599;SDS011;52272;-29.642;-50.764;2022-09-09T04:44:28;18.40;;;13.27;;
65599;SDS011;52272;-29.642;-50.764;2022-09-09T04:46:59;17.23;;;12.38;;
65599;SDS011;52272;-29.642;-50.764;2022-09-09T04:49:29;21.35;;;14.45;;
65599;SDS011;52272;-29.642;-50.764;2022-09-09T04:52:02;19.30;;;12.95;;
65599;SDS011;52272;-29.642;-50.764;2022-09-09T04:54:34;16.55;;;11.85;;
65599;SDS011;52272;-29.642;-50.764;2022-09-09T04:57:05;19.60;;;11.77;;
65599;SDS011;52272;-29.642;-50.764;2022-09-09T04:59:35;17.27;;;13.10;;
65599;SDS011;52272;-29.642;-50.764;2022-09-09T05:02:06;17.60;;;12.48;;
65599;SDS011;52272;-29.642;-50.764;2022-09-09T05:04:37;16.05;;;11.98;;
65599;SDS011;52272;-29.642;-50.764;2022-09-09T05:07:08;16.15;;;10.98;;
65599;SDS011;52272;-29.642;-50.764;2022-09-09T05:09:40;18.98;;;11.45;;
65599;SDS011;52272;-29.642;-50.764;2022-09-09T05:12:11;17.90;;;12.02;;
65599;SDS011;52272;-29.642;-50.764;2022-09-09T05:14:47;15.88;;;11.95;;
65599;SDS011;52272;-29.642;-50.764;2022-09-09T05:17:19;14.80;;;11.80;;
65599;SDS011;52272;-29.642;-50.764;2022-09-09T05:19:52;14.32;;;11.07;;
65599;SDS011;52272;-29.642;-50.764;2022-09-09T05:22:22;18.92;;;11.60;;
65599;SDS011;52272;-29.642;-50.764;2022-09-09T05:24:53;14.27;;;10.98;;
65599;SDS011;52272;-29.642;-50.764;2022-09-09T05:27:24;13.73;;;10.98;;
65599;SDS011;52272;-29.642;-50.764;2022-09-09T05:29:54;18.98;;;11.35;;
65599;SDS011;52272;-29.642;-50.764;2022-09-09T05:32:25;17.65;;;11.10;;
65599;SDS011;52272;-29.642;-50.764;2022-09-09T05:34:57;19.73;;;11.65;;
65599;SDS011;52272;-29.642;-50.764;2022-09-09T05:37:27;13.88;;;11.25;;
65599;SDS011;52272;-29.642;-50.764;2022-09-09T05:39:59;14.60;;;11.15;;
65599;SDS011;52272;-29.642;-50.764;2022-09-09T05:42:30;17.27;;;11.10;;
65599;SDS011;52272;-29.642;-50.764;2022-09-09T05:45:02;18.90;;;11.68;;
65599;SDS011;52272;-29.642;-50.764;2022-09-09T05:47:32;15.63;;;10.52;;
65599;SDS011;52272;-29.642;-50.764;2022-09-09T05:50:02;19.65;;;11.63;;
65599;SDS011;52272;-29.642;-50.764;2022-09-09T05:52:33;14.05;;;10.18;;
65599;SDS011;52272;-29.642;-50.764;2022-09-09T05:55:05;16.52;;;10.48;;
65599;SDS011;52272;-29.642;-50.764;2022-09-09T05:57:36;14.27;;;10.80;;
65599;SDS011;52272;-29.642;-50.764;2022-09-09T06:00:06;15.32;;;9.77;;
65599;SDS011;52272;-29.642;-50.764;2022-09-09T06:02:50;21.30;;;10.55;;
65599;SDS011;52272;-29.642;-50.764;2022-09-09T06:05:21;15.73;;;9.25;;
65599;SDS011;52272;-29.642;-50.764;2022-09-09T06:07:53;17.58;;;10.43;;
65599;SDS011;52272;-29.642;-50.764;2022-09-09T06:10:24;15.43;;;10.20;;
65599;SDS011;52272;-29.642;-50.764;2022-09-09T06:12:55;15.70;;;9.68;;
65599;SDS011;52272;-29.642;-50.764;2022-09-09T06:15:25;15.85;;;9.68;;
65599;SDS011;52272;-29.642;-50.764;2022-09-09T06:17:56;19.85;;;10.85;;
65599;SDS011;52272;-29.642;-50.764;2022-09-09T06:20:26;15.80;;;9.90;;
65599;SDS011;52272;-29.642;-50.764;2022-09-09T06:22:59;18.73;;;10.40;;
65599;SDS011;52272;-29.642;-50.764;2022-09-09T06:25:30;15.10;;;10.57;;
65599;SDS011;52272;-29.642;-50.764;2022-09-09T06:28:01;14.57;;;10.27;;
65599;SDS011;52272;-29.642;-50.764;2022-09-09T06:34:00;16.58;;;10.55;;
65599;SDS011;52272;-29.642;-50.764;2022-09-09T06:36:31;15.88;;;10.57;;
65599;SDS011;52272;-29.642;-50.764;2022-09-09T06:39:05;16.92;;;11.23;;
65599;SDS011;52272;-29.642;-50.764;2022-09-09T06:41:42;19.40;;;10.93;;
65599;SDS011;52272;-29.642;-50.764;2022-09-09T06:44:32;13.48;;;10.07;;
65599;SDS011;52272;-29.642;-50.764;2022-09-09T06:47:27;18.98;;;10.38;;
65599;SDS011;52272;-29.642;-50.764;2022-09-09T06:49:59;17.67;;;11.57;;
65599;SDS011;52272;-29.642;-50.764;2022-09-09T06:52:33;14.55;;;10.10;;
65599;SDS011;52272;-29.642;-50.764;2022-09-09T06:55:04;17.45;;;10.32;;
65599;SDS011;52272;-29.642;-50.764;2022-09-09T06:57:35;18.40;;;10.50;;
65599;SDS011;52272;-29.642;-50.764;2022-09-09T07:00:23;14.02;;;10.57;;
65599;SDS011;52272;-29.642;-50.764;2022-09-09T07:02:53;17.92;;;10.35;;
65599;SDS011;52272;-29.642;-50.764;2022-09-09T07:05:24;13.48;;;10.50;;
65599;SDS011;52272;-29.642;-50.764;2022-09-09T07:07:55;21.77;;;10.52;;
65599;SDS011;52272;-29.642;-50.764;2022-09-09T07:10:27;18.85;;;9.95;;
65599;SDS011;52272;-29.642;-50.764;2022-09-09T07:12:58;15.02;;;10.18;;
65599;SDS011;52272;-29.642;-50.764;2022-09-09T07:15:29;20.38;;;10.40;;
65599;SDS011;52272;-29.642;-50.764;2022-09-09T07:18:03;16.67;;;9.77;;
65599;SDS011;52272;-29.642;-50.764;2022-09-09T07:20:33;17.92;;;9.98;;
65599;SDS011;52272;-29.642;-50.764;2022-09-09T07:23:03;18.00;;;10.75;;
65599;SDS011;52272;-29.642;-50.764;2022-09-09T07:25:34;15.02;;;9.65;;
65599;SDS011;52272;-29.642;-50.764;2022-09-09T07:28:04;18.85;;;10.07;;
65599;SDS011;52272;-29.642;-50.764;2022-09-09T07:30:36;16.45;;;10.23;;
65599;SDS011;52272;-29.642;-50.764;2022-09-09T07:33:06;16.13;;;9.65;;
65599;SDS011;52272;-29.642;-50.764;2022-09-09T07:35:37;20.20;;;10.52;;
65599;SDS011;52272;-29.642;-50.764;2022-09-09T07:38:07;15.00;;;11.10;;
65599;SDS011;52272;-29.642;-50.764;2022-09-09T07:40:42;17.92;;;10.68;;
65599;SDS011;52272;-29.642;-50.764;2022-09-09T07:43:12;17.05;;;12.20;;
65599;SDS011;52272;-29.642;-50.764;2022-09-09T07:45:44;14.50;;;10.52;;
65599;SDS011;52272;-29.642;-50.764;2022-09-09T07:48:15;18.00;;;10.40;;
65599;SDS011;52272;-29.642;-50.764;2022-09-09T07:50:46;22.27;;;11.65;;
65599;SDS011;52272;-29.642;-50.764;2022-09-09T07:53:16;18.05;;;11.45;;
65599;SDS011;52272;-29.642;-50.764;2022-09-09T07:55:49;19.25;;;12.68;;
65599;SDS011;52272;-29.642;-50.764;2022-09-09T07:58:19;16.38;;;10.90;;
65599;SDS011;52272;-29.642;-50.764;2022-09-09T08:00:49;19.05;;;12.20;;
65599;SDS011;52272;-29.642;-50.764;2022-09-09T08:03:24;19.17;;;12.15;;
65599;SDS011;52272;-29.642;-50.764;2022-09-09T08:05:59;17.17;;;12.80;;
65599;SDS011;52272;-29.642;-50.764;2022-09-09T08:08:33;23.63;;;12.18;;
65599;SDS011;52272;-29.642;-50.764;2022-09-09T08:11:08;16.95;;;12.63;;
65599;SDS011;52272;-29.642;-50.764;2022-09-09T08:13:41;19.23;;;12.82;;
65599;SDS011;52272;-29.642;-50.764;2022-09-09T08:16:14;19.88;;;12.90;;
65599;SDS011;52272;-29.642;-50.764;2022-09-09T08:18:46;23.58;;;12.75;;
65599;SDS011;52272;-29.642;-50.764;2022-09-09T08:21:18;22.65;;;12.20;;
65599;SDS011;52272;-29.642;-50.764;2022-09-09T08:23:51;24.13;;;14.85;;
65599;SDS011;52272;-29.642;-50.764;2022-09-09T08:26:26;20.42;;;13.25;;
65599;SDS011;52272;-29.642;-50.764;2022-09-09T08:28:58;19.55;;;13.98;;
65599;SDS011;52272;-29.642;-50.764;2022-09-09T08:31:32;21.70;;;13.23;;
65599;SDS011;52272;-29.642;-50.764;2022-09-09T08:34:07;21.10;;;14.63;;
65599;SDS011;52272;-29.642;-50.764;2022-09-09T08:36:40;20.15;;;14.10;;
65599;SDS011;52272;-29.642;-50.764;2022-09-09T08:39:14;19.75;;;14.73;;
65599;SDS011;52272;-29.642;-50.764;2022-09-09T08:50:15;22.67;;;14.75;;
65599;SDS011;52272;-29.642;-50.764;2022-09-09T08:56:00;18.70;;;14.68;;
65599;SDS011;52272;-29.642;-50.764;2022-09-09T08:58:49;22.33;;;15.15;;
65599;SDS011;52272;-29.642;-50.764;2022-09-09T09:01:55;21.27;;;15.35;;
65599;SDS011;52272;-29.642;-50.764;2022-09-09T09:05:05;24.48;;;15.68;;
65599;SDS011;52272;-29.642;-50.764;2022-09-09T09:08:06;22.50;;;17.08;;
65599;SDS011;52272;-29.642;-50.764;2022-09-09T09:10:55;23.85;;;15.60;;
65599;SDS011;52272;-29.642;-50.764;2022-09-09T09:19:04;19.75;;;16.33;;
65599;SDS011;52272;-29.642;-50.764;2022-09-09T09:24:19;21.40;;;16.15;;
65599;SDS011;52272;-29.642;-50.764;2022-09-09T09:26:56;25.73;;;16.73;;
65599;SDS011;52272;-29.642;-50.764;2022-09-09T09:29:26;28.50;;;19.05;;
65599;SDS011;52272;-29.642;-50.764;2022-09-09T09:31:58;25.45;;;17.30;;
65599;SDS011;52272;-29.642;-50.764;2022-09-09T09:34:32;23.10;;;16.65;;
65599;SDS011;52272;-29.642;-50.764;2022-09-09T09:37:02;23.75;;;17.42;;
65599;SDS011;52272;-29.642;-50.764;2022-09-09T09:39:47;22.95;;;17.42;;
65599;SDS011;52272;-29.642;-50.764;2022-09-09T09:42:33;33.55;;;17.90;;
65599;SDS011;52272;-29.642;-50.764;2022-09-09T09:45:16;22.98;;;17.40;;
65599;SDS011;52272;-29.642;-50.764;2022-09-09T09:48:00;28.58;;;19.23;;
65599;SDS011;52272;-29.642;-50.764;2022-09-09T09:50:46;27.65;;;20.13;;
65599;SDS011;52272;-29.642;-50.764;2022-09-09T09:53:41;26.67;;;18.05;;
65599;SDS011;52272;-29.642;-50.764;2022-09-09T09:56:14;34.10;;;18.17;;
65599;SDS011;52272;-29.642;-50.764;2022-09-09T10:01:27;28.60;;;20.67;;
65599;SDS011;52272;-29.642;-50.764;2022-09-09T10:04:14;30.77;;;19.33;;
65599;SDS011;52272;-29.642;-50.764;2022-09-09T10:06:48;26.83;;;18.45;;
65599;SDS011;52272;-29.642;-50.764;2022-09-09T10:09:29;27.98;;;18.67;;
65599;SDS011;52272;-29.642;-50.764;2022-09-09T10:29:32;28.63;;;19.10;;
65599;SDS011;52272;-29.642;-50.764;2022-09-09T10:35:27;31.60;;;20.20;;
65599;SDS011;52272;-29.642;-50.764;2022-09-09T10:38:10;29.55;;;20.33;;
65599;SDS011;52272;-29.642;-50.764;2022-09-09T10:46:40;26.05;;;18.30;;
65599;SDS011;52272;-29.642;-50.764;2022-09-09T10:50:07;27.20;;;16.92;;
65599;SDS011;52272;-29.642;-50.764;2022-09-09T10:53:02;27.42;;;18.17;;
65599;SDS011;52272;-29.642;-50.764;2022-09-09T10:55:40;26.30;;;17.63;;
65599;SDS011;52272;-29.642;-50.764;2022-09-09T11:01:10;23.55;;;18.42;;
65599;SDS011;52272;-29.642;-50.764;2022-09-09T11:03:51;25.80;;;18.20;;
65599;SDS011;52272;-29.642;-50.764;2022-09-09T11:06:38;26.13;;;17.65;;
65599;SDS011;52272;-29.642;-50.764;2022-09-09T11:09:15;28.33;;;18.75;;
65599;SDS011;52272;-29.642;-50.764;2022-09-09T11:11:54;26.50;;;18.83;;
65599;SDS011;52272;-29.642;-50.764;2022-09-09T11:17:30;23.48;;;18.48;;
65599;SDS011;52272;-29.642;-50.764;2022-09-09T11:20:12;30.65;;;20.38;;
65599;SDS011;52272;-29.642;-50.764;2022-09-09T11:22:46;27.85;;;21.17;;
65599;SDS011;52272;-29.642;-50.764;2022-09-09T11:25:26;24.65;;;20.25;;
65599;SDS011;52272;-29.642;-50.764;2022-09-09T11:33:50;27.67;;;20.70;;
65599;SDS011;52272;-29.642;-50.764;2022-09-09T11:44:43;29.60;;;18.52;;
65599;SDS011;52272;-29.642;-50.764;2022-09-09T11:47:22;26.33;;;19.05;;
65599;SDS011;52272;-29.642;-50.764;2022-09-09T11:52:44;32.47;;;21.08;;
65599;SDS011;52272;-29.642;-50.764;2022-09-09T11:55:30;29.10;;;20.30;;
65599;SDS011;52272;-29.642;-50.764;2022-09-09T11:58:06;24.88;;;18.85;;
65599;SDS011;52272;-29.642;-50.764;2022-09-09T12:00:47;25.52;;;19.08;;
65599;SDS011;52272;-29.642;-50.764;2022-09-09T12:06:31;26.80;;;18.27;;
65599;SDS011;52272;-29.642;-50.764;2022-09-09T12:09:18;25.73;;;19.08;;
65599;SDS011;52272;-29.642;-50.764;2022-09-09T12:11:52;25.15;;;18.38;;
65599;SDS011;52272;-29.642;-50.764;2022-09-09T12:14:36;29.15;;;21.23;;
65599;SDS011;52272;-29.642;-50.764;2022-09-09T12:17:29;29.25;;;19.90;;
65599;SDS011;52272;-29.642;-50.764;2022-09-09T12:20:08;24.90;;;18.58;;
65599;SDS011;52272;-29.642;-50.764;2022-09-09T12:22:51;27.05;;;19.33;;
65599;SDS011;52272;-29.642;-50.764;2022-09-09T12:33:51;30.73;;;21.05;;
65599;SDS011;52272;-29.642;-50.764;2022-09-09T12:36:23;37.42;;;22.00;;
65599;SDS011;52272;-29.642;-50.764;2022-09-09T12:38:59;29.85;;;21.50;;
65599;SDS011;52272;-29.642;-50.764;2022-09-09T12:41:54;26.67;;;20.80;;
65599;SDS011;52272;-29.642;-50.764;2022-09-09T12:44:27;25.33;;;18.65;;
65599;SDS011;52272;-29.642;-50.764;2022-09-09T12:46:59;30.27;;;20.77;;
65599;SDS011;52272;-29.642;-50.764;2022-09-09T12:49:36;27.77;;;19.63;;
65599;SDS011;52272;-29.642;-50.764;2022-09-09T12:54:57;33.15;;;20.25;;
65599;SDS011;52272;-29.642;-50.764;2022-09-09T12:57:36;29.70;;;20.38;;
65599;SDS011;52272;-29.642;-50.764;2022-09-09T13:00:20;28.15;;;20.77;;
65599;SDS011;52272;-29.642;-50.764;2022-09-09T13:02:54;31.75;;;20.05;;
65599;SDS011;52272;-29.642;-50.764;2022-09-09T13:05:43;39.28;;;21.02;;
65599;SDS011;52272;-29.642;-50.764;2022-09-09T13:08:16;35.22;;;23.58;;
65599;SDS011;52272;-29.642;-50.764;2022-09-09T13:10:50;31.67;;;22.42;;
65599;SDS011;52272;-29.642;-50.764;2022-09-09T13:13:35;37.25;;;21.85;;
65599;SDS011;52272;-29.642;-50.764;2022-09-09T13:19:15;28.98;;;19.75;;
65599;SDS011;52272;-29.642;-50.764;2022-09-09T13:21:47;31.67;;;21.42;;
65599;SDS011;52272;-29.642;-50.764;2022-09-09T13:24:24;30.42;;;21.10;;
65599;SDS011;52272;-29.642;-50.764;2022-09-09T13:27:05;30.30;;;21.33;;
65599;SDS011;52272;-29.642;-50.764;2022-09-09T13:30:23;31.17;;;22.60;;
65599;SDS011;52272;-29.642;-50.764;2022-09-09T13:35:51;30.45;;;20.77;;
65599;SDS011;52272;-29.642;-50.764;2022-09-09T13:38:22;29.75;;;20.67;;
65599;SDS011;52272;-29.642;-50.764;2022-09-09T13:40:55;25.77;;;20.42;;
65599;SDS011;52272;-29.642;-50.764;2022-09-09T13:43:43;35.28;;;22.10;;
65599;SDS011;52272;-29.642;-50.764;2022-09-09T13:46:28;26.67;;;21.30;;
65599;SDS011;52272;-29.642;-50.764;2022-09-09T13:49:01;27.40;;;21.25;;
65599;SDS011;52272;-29.642;-50.764;2022-09-09T13:54:06;25.95;;;21.52;;
65599;SDS011;52272;-29.642;-50.764;2022-09-09T13:56:39;28.00;;;21.08;;
65599;SDS011;52272;-29.642;-50.764;2022-09-09T13:59:12;28.75;;;21.92;;
65599;SDS011;52272;-29.642;-50.764;2022-09-09T14:04:21;33.83;;;22.98;;
65599;SDS011;52272;-29.642;-50.764;2022-09-09T14:06:51;30.02;;;22.83;;
65599;SDS011;52272;-29.642;-50.764;2022-09-09T14:09:22;28.80;;;21.05;;
65599;SDS011;52272;-29.642;-50.764;2022-09-09T14:11:53;25.95;;;21.15;;
65599;SDS011;52272;-29.642;-50.764;2022-09-09T14:14:24;26.70;;;20.83;;
65599;SDS011;52272;-29.642;-50.764;2022-09-09T14:16:54;28.25;;;21.38;;
65599;SDS011;52272;-29.642;-50.764;2022-09-09T14:19:25;26.38;;;21.17;;
65599;SDS011;52272;-29.642;-50.764;2022-09-09T14:21:55;26.65;;;21.27;;
65599;SDS011;52272;-29.642;-50.764;2022-09-09T14:24:25;26.05;;;19.33;;
65599;SDS011;52272;-29.642;-50.764;2022-09-09T14:26:56;27.58;;;19.75;;
65599;SDS011;52272;-29.642;-50.764;2022-09-09T14:29:27;25.83;;;19.95;;
65599;SDS011;52272;-29.642;-50.764;2022-09-09T14:31:57;25.35;;;19.85;;
65599;SDS011;52272;-29.642;-50.764;2022-09-09T14:34:30;23.50;;;20.25;;
65599;SDS011;52272;-29.642;-50.764;2022-09-09T14:37:01;25.10;;;20.13;;
65599;SDS011;52272;-29.642;-50.764;2022-09-09T14:39:31;30.75;;;20.52;;
65599;SDS011;52272;-29.642;-50.764;2022-09-09T14:42:02;25.58;;;20.48;;
65599;SDS011;52272;-29.642;-50.764;2022-09-09T14:44:35;29.73;;;20.42;;
65599;SDS011;52272;-29.642;-50.764;2022-09-09T14:47:07;25.48;;;21.25;;
65599;SDS011;52272;-29.642;-50.764;2022-09-09T14:49:38;28.40;;;21.80;;
65599;SDS011;52272;-29.642;-50.764;2022-09-09T14:52:13;29.35;;;23.50;;
65599;SDS011;52272;-29.642;-50.764;2022-09-09T14:54:43;28.40;;;21.23;;
65599;SDS011;52272;-29.642;-50.764;2022-09-09T14:57:13;27.65;;;21.73;;
65599;SDS011;52272;-29.642;-50.764;2022-09-09T14:59:43;23.90;;;19.88;;
65599;SDS011;52272;-29.642;-50.764;2022-09-09T15:02:14;26.42;;;21.23;;
65599;SDS011;52272;-29.642;-50.764;2022-09-09T15:04:44;23.25;;;20.30;;
65599;SDS011;52272;-29.642;-50.764;2022-09-09T15:07:15;25.42;;;20.65;;
65599;SDS011;52272;-29.642;-50.764;2022-09-09T15:09:48;30.52;;;23.13;;
65599;SDS011;52272;-29.642;-50.764;2022-09-09T15:12:19;25.02;;;21.98;;
65599;SDS011;52272;-29.642;-50.764;2022-09-09T15:14:52;27.85;;;20.50;;
65599;SDS011;52272;-29.642;-50.764;2022-09-09T15:17:23;25.52;;;21.15;;
65599;SDS011;52272;-29.642;-50.764;2022-09-09T15:19:54;25.02;;;22.42;;
65599;SDS011;52272;-29.642;-50.764;2022-09-09T15:22:25;24.20;;;21.60;;
65599;SDS011;52272;-29.642;-50.764;2022-09-09T15:24:58;26.60;;;23.30;;
65599;SDS011;52272;-29.642;-50.764;2022-09-09T15:27:29;27.10;;;23.48;;
65599;SDS011;52272;-29.642;-50.764;2022-09-09T15:30:00;27.85;;;24.63;;
65599;SDS011;52272;-29.642;-50.764;2022-09-09T15:32:30;27.92;;;24.25;;
65599;SDS011;52272;-29.642;-50.764;2022-09-09T15:35:01;25.92;;;22.88;;
65599;SDS011;52272;-29.642;-50.764;2022-09-09T15:37:32;29.00;;;25.60;;
65599;SDS011;52272;-29.642;-50.764;2022-09-09T15:40:02;32.25;;;28.02;;
65599;SDS011;52272;-29.642;-50.764;2022-09-09T15:42:33;32.85;;;28.25;;
65599;SDS011;52272;-29.642;-50.764;2022-09-09T15:45:03;34.50;;;30.42;;
65599;SDS011;52272;-29.642;-50.764;2022-09-09T15:47:35;38.28;;;32.20;;
65599;SDS011;52272;-29.642;-50.764;2022-09-09T15:50:05;32.05;;;28.33;;
65599;SDS011;52272;-29.642;-50.764;2022-09-09T15:52:36;32.60;;;29.10;;
65599;SDS011;52272;-29.642;-50.764;2022-09-09T15:55:06;37.08;;;29.80;;
65599;SDS011;52272;-29.642;-50.764;2022-09-09T15:57:37;35.15;;;30.13;;
65599;SDS011;52272;-29.642;-50.764;2022-09-09T16:00:07;34.13;;;30.65;;
65599;SDS011;52272;-29.642;-50.764;2022-09-09T16:02:41;34.72;;;29.77;;
65599;SDS011;52272;-29.642;-50.764;2022-09-09T16:05:12;38.60;;;30.60;;
65599;SDS011;52272;-29.642;-50.764;2022-09-09T16:07:42;36.20;;;30.65;;
65599;SDS011;52272;-29.642;-50.764;2022-09-09T16:10:13;36.20;;;30.85;;
65599;SDS011;52272;-29.642;-50.764;2022-09-09T16:12:44;39.95;;;31.50;;
65599;SDS011;52272;-29.642;-50.764;2022-09-09T16:15:14;39.40;;;35.00;;
65599;SDS011;52272;-29.642;-50.764;2022-09-09T16:17:45;36.90;;;32.35;;
65599;SDS011;52272;-29.642;-50.764;2022-09-09T16:20:15;35.15;;;31.35;;
65599;SDS011;52272;-29.642;-50.764;2022-09-09T16:22:45;38.20;;;32.75;;
65599;SDS011;52272;-29.642;-50.764;2022-09-09T16:25:16;38.25;;;32.20;;
65599;SDS011;52272;-29.642;-50.764;2022-09-09T16:27:48;39.20;;;32.20;;
65599;SDS011;52272;-29.642;-50.764;2022-09-09T16:30:18;37.47;;;32.33;;
65599;SDS011;52272;-29.642;-50.764;2022-09-09T16:32:48;40.63;;;30.63;;
65599;SDS011;52272;-29.642;-50.764;2022-09-09T16:35:20;38.03;;;30.48;;
65599;SDS011;52272;-29.642;-50.764;2022-09-09T16:37:51;36.80;;;31.05;;
65599;SDS011;52272;-29.642;-50.764;2022-09-09T16:40:22;40.97;;;35.45;;
65599;SDS011;52272;-29.642;-50.764;2022-09-09T16:42:55;34.95;;;31.25;;
65599;SDS011;52272;-29.642;-50.764;2022-09-09T16:45:25;37.05;;;30.85;;
65599;SDS011;52272;-29.642;-50.764;2022-09-09T16:47:56;43.80;;;31.73;;
65599;SDS011;52272;-29.642;-50.764;2022-09-09T16:50:26;40.17;;;33.45;;
65599;SDS011;52272;-29.642;-50.764;2022-09-09T16:52:57;39.78;;;35.05;;
65599;SDS011;52272;-29.642;-50.764;2022-09-09T16:55:30;42.50;;;35.05;;
65599;SDS011;52272;-29.642;-50.764;2022-09-09T16:58:02;41.80;;;35.05;;
65599;SDS011;52272;-29.642;-50.764;2022-09-09T17:00:32;42.05;;;34.58;;
65599;SDS011;52272;-29.642;-50.764;2022-09-09T17:03:03;44.17;;;36.63;;
65599;SDS011;52272;-29.642;-50.764;2022-09-09T17:05:39;43.17;;;35.92;;
65599;SDS011;52272;-29.642;-50.764;2022-09-09T17:08:10;43.42;;;38.10;;
65599;SDS011;52272;-29.642;-50.764;2022-09-09T17:10:41;46.83;;;37.35;;
65599;SDS011;52272;-29.642;-50.764;2022-09-09T17:13:12;42.63;;;36.53;;
65599;SDS011;52272;-29.642;-50.764;2022-09-09T17:15:42;41.97;;;36.60;;
65599;SDS011;52272;-29.642;-50.764;2022-09-09T17:18:13;43.55;;;37.47;;